Nearby METAR Reports

 

KPMD - Palmdale, California, USA
Distance from station: NNE 12mi, 19km
Updated: Sun, 29-Nov-2020 2:53pm PST
Clear
Clear
 Wind from NE
Wind: NE 7 mph , 11 km/h
Temperature: 66°F , 19°C
Dew Point: 10°F , -12°C
Humidity: 11%
Barometer: 30.19 inHg , 1022.4 hPa
Clouds: Clear
Visibility: 10 miles , 16 km
2020/11/29 22:53 KPMD 292253Z 04006KT 10SM CLR 19/M12 A3019 RMK AO2 SLP223 T01891122
KWJF - Lancaster/Fox, California, USA
Distance from station: N 17mi, 27km
Updated: Sun, 29-Nov-2020 2:56pm PST
Clear
Clear
 Wind from ENE
Wind: ENE 8 mph , 13 km/h
Temperature: 64°F , 18°C
Dew Point: 12°F , -11°C
Humidity: 13%
Barometer: 30.19 inHg , 1022.4 hPa
Clouds: Clear
Visibility: 10 miles , 16 km
2020/11/29 22:56 KWJF 292256Z 07007KT 10SM CLR 18/M11 A3019 RMK AO2 SLP233 T01831111
 
KMWS - Mount Wilson, California, USA
Distance from station: SSE 18mi, 30km
Updated: Wed, 13-May-2015 6:45am PDT
NOT Current

 Wind from S
Wind: S 3 mph , 6 km/h, Gust: 5 mph , 7 km/h
Temperature: 43°F , 6°C
Dew Point: -0°F , -18°C
Humidity: 16%
2015/05/13 13:45 KMWS 131345Z 18003G04KT 06/M18 RMK SNOW DEPTH 1.00
KWHP - La / Whiteman, California, USA
Distance from station: SW 21mi, 34km
Updated: Fri, 27-Nov-2020 7:55pm PST
NOT Current
Clear
Clear
 Wind from calm
Wind: Calm
Temperature: 55°F , 13°C
Dew Point: 16°F , -9°C
Humidity: 21%
Barometer: 30.19 inHg , 1022.4 hPa
Clouds: Clear
Visibility: 10 miles , 16 km
2020/11/28 03:55 KWHP 280355Z 00000KT 10SM SKC 13/M09 A3019
 
KBUR - Burbank, California, USA
Distance from station: SSW 22mi, 35km
Updated: Sun, 29-Nov-2020 2:53pm PST
Clear
Clear
 Wind from calm
Wind: Calm
Temperature: 75°F , 24°C
Dew Point: 7°F , -14°C
Humidity: 7%
Barometer: 30.05 inHg , 1017.6 hPa
Clouds: Clear
Visibility: 10 miles , 16 km
2020/11/29 22:53 KBUR 292253Z 00000KT 10SM CLR 24/M14 A3005 RMK AO2 SLP166 T02441144
KVNY - Van Nuys, California, USA
Distance from station: SW 25mi, 40km
Updated: Sun, 29-Nov-2020 2:51pm PST
Clear
Clear
 Wind from N
Wind: N 8 mph , 13 km/h, Gust: 18 mph , 30 km/h
Temperature: 75°F , 24°C
Dew Point: 12°F , -11°C
Humidity: 9%
Barometer: 30.05 inHg , 1017.6 hPa
Clouds: Clear
Visibility: 10 miles , 16 km
2020/11/29 22:51 KVNY 292251Z 35007G16KT 10SM CLR 24/M11 A3005 RMK AO2 SLP171 T02441111
 
KEDW - Edwards Afb, California, USA
Distance from station: NNE 33mi, 53km
Updated: Sun, 29-Nov-2020 2:58pm PST
Clear
Clear
 Wind from calm
Wind: Calm
Temperature: 64°F , 18°C
Dew Point: 10°F , -12°C
Humidity: 12%
Barometer: 30.16 inHg , 1021.3 hPa
Clouds: Clear
Visibility: 90 miles , 144 km
2020/11/29 22:58 KEDW 292258Z 00000KT 90SM CLR 18/M12 A3016 RMK AO2A SLP217 T01811118
KSMO - Santa Monica, California, USA
Distance from station: SSW 35mi, 57km
Updated: Wed, 25-Nov-2020 9:51pm PST
NOT Current
Clear
Clear
 Wind from calm
Wind: Calm
Temperature: 54°F , 12°C
Dew Point: 48°F , 9°C
Humidity: 82%
Barometer: 30.06 inHg , 1017.9 hPa
Clouds: Clear
Visibility: 10 miles , 16 km
2020/11/26 05:51 KSMO 260551Z AUTO 00000KT 10SM CLR 12/09 A3006 RMK AO2 SLP177 T01170094 10156 20117 53002
 
KLAX - Los Angeles, California, USA
Distance from station: SSW 39mi, 63km
Updated: Sun, 29-Nov-2020 2:53pm PST
Few Clouds
Few Clouds
 Wind from W
Wind: W 10 mph , 17 km/h
Temperature: 66°F , 19°C
Dew Point: 39°F , 4°C
Humidity: 37%
Barometer: 30.06 inHg , 1017.9 hPa
Clouds: Few Clouds
Visibility: 10 miles , 16 km
Cloud details: Few Clouds 25000 ft
2020/11/29 22:53 KLAX 292253Z 26009KT 10SM FEW250 19/04 A3006 RMK AO2 SLP178 T01890039
KMHV - Mojave, California, USA
Distance from station: N 41mi, 66km
Updated: Sun, 29-Nov-2020 2:40pm PST
Clear
Clear
 Wind from NE
Wind: NE 8 mph , 13 km/h
Temperature: 64°F , 18°C
Dew Point: 9°F , -13°C
Humidity: 11%
Barometer: 30.20 inHg , 1022.7 hPa
Clouds: Clear
Visibility: 10 miles , 16 km
2020/11/29 22:40 KMHV 292240Z AUTO 04007KT 10SM CLR 18/M13 A3020 RMK A01
 
KFUL - Fullerton, California, USA
Distance from station: SSE 44mi, 70km
Updated: Sun, 29-Nov-2020 2:53pm PST
Clear
Clear
 Wind from WNW
Wind: WNW 3 mph , 6 km/h
Temperature: 79°F , 26°C
Dew Point: 14°F , -10°C
Humidity: 8%
Barometer: 30.03 inHg , 1016.9 hPa
Clouds: Clear
Visibility: 10 miles , 16 km
2020/11/29 22:53 KFUL 292253Z 29003KT 10SM CLR 26/M10 A3003 RMK AO2 SLP169 T02611100 $
KONT - Ontario, California, USA
Distance from station: SE 45mi, 72km
Updated: Sun, 29-Nov-2020 2:53pm PST
Partly cloudy
Partly cloudy
 Wind from varies
Wind: varies 7 mph , 11 km/h
Temperature: 75°F , 24°C
Dew Point: 7°F , -14°C
Humidity: 7%
Barometer: 30.06 inHg , 1017.9 hPa
Clouds: Partly cloudy
Visibility: 10 miles , 16 km
Cloud details: Few Clouds 16000 ft
Partly cloudy 25000 ft
2020/11/29 22:53 KONT 292253Z VRB06KT 10SM FEW160 SCT250 24/M14 A3006 RMK AO2 SLP175 T02391144
 
KLGB - Long Beach, California, USA
Distance from station: S 46mi, 74km
Updated: Sun, 29-Nov-2020 2:53pm PST
Clear
Clear
 Wind from varies
Wind: varies 5 mph , 7 km/h
Temperature: 79°F , 26°C
Dew Point: 14°F , -10°C
Humidity: 8%
Barometer: 30.04 inHg , 1017.3 hPa
Clouds: Clear
Visibility: 10 miles , 16 km
2020/11/29 22:53 KLGB 292253Z VRB04KT 10SM CLR 26/M10 A3004 RMK AO2 SLP172 T02561100
KVCV - Victorville, California, USA
Distance from station: E 46mi, 74km
Updated: Sun, 29-Nov-2020 2:45pm PST
Clear
Clear
 Wind from NNW
Wind: NNW 9 mph , 15 km/h
Barometer: 30.20 inHg , 1022.7 hPa
Clouds: Clear
Visibility: 10 miles , 16 km
2020/11/29 22:45 KVCV 292245Z 33008KT 10SM SKC A3020
 
KTSP - Tehachapi, California, USA
Distance from station: NNW 48mi, 77km
Updated: Sun, 29-Nov-2020 2:55pm PST
Clear
Clear
 Wind from ESE
Wind: ESE 17 mph , 28 km/h
Temperature: 59°F , 15°C
Dew Point: 9°F , -13°C
Humidity: 13%
Barometer: 30.23 inHg , 1023.7 hPa
Clouds: Clear
Visibility: 10 miles , 16 km
2020/11/29 22:55 KTSP 292255Z AUTO 12015KT 10SM CLR 15/M13 A3023 RMK AO2